sensor_id;sensor_type;location;lat;lon;timestamp;temperature;humidity
61392;DHT22;47261;52.892;5.738;2024-03-23T00:55:40;7.60;99.90
61392;DHT22;47261;52.892;5.738;2024-03-23T00:58:06;7.60;99.90
61392;DHT22;47261;52.892;5.738;2024-03-23T01:00:32;7.60;99.90
61392;DHT22;47261;52.892;5.738;2024-03-23T01:02:57;7.60;99.90
61392;DHT22;47261;52.892;5.738;2024-03-23T01:05:23;7.60;99.90
61392;DHT22;47261;52.892;5.738;2024-03-23T01:07:48;7.60;99.90
61392;DHT22;47261;52.892;5.738;2024-03-23T01:10:14;7.60;99.90
61392;DHT22;47261;52.892;5.738;2024-03-23T01:12:40;7.60;99.90
61392;DHT22;47261;52.892;5.738;2024-03-23T01:15:05;7.60;99.90
61392;DHT22;47261;52.892;5.738;2024-03-23T01:17:31;7.50;99.90
61392;DHT22;47261;52.892;5.738;2024-03-23T01:19:57;7.50;99.90
61392;DHT22;47261;52.892;5.738;2024-03-23T01:22:23;7.50;99.90
61392;DHT22;47261;52.892;5.738;2024-03-23T01:24:48;7.40;99.90
61392;DHT22;47261;52.892;5.738;2024-03-23T01:27:14;7.40;99.90
61392;DHT22;47261;52.892;5.738;2024-03-23T01:29:40;7.40;99.90
61392;DHT22;47261;52.892;5.738;2024-03-23T01:32:06;7.40;99.90
61392;DHT22;47261;52.892;5.738;2024-03-23T01:34:32;7.40;99.90
61392;DHT22;47261;52.892;5.738;2024-03-23T01:36:58;7.40;99.90
61392;DHT22;47261;52.892;5.738;2024-03-23T01:39:24;7.40;99.90
61392;DHT22;47261;52.892;5.738;2024-03-23T01:41:50;7.40;99.90
61392;DHT22;47261;52.892;5.738;2024-03-23T01:44:15;7.40;99.90
61392;DHT22;47261;52.892;5.738;2024-03-23T01:46:41;7.50;99.90
61392;DHT22;47261;52.892;5.738;2024-03-23T01:49:08;7.40;99.90
61392;DHT22;47261;52.892;5.738;2024-03-23T01:51:34;7.40;99.90
61392;DHT22;47261;52.892;5.738;2024-03-23T01:54:00;7.40;99.90
61392;DHT22;47261;52.892;5.738;2024-03-23T01:56:29;7.40;99.90
61392;DHT22;47261;52.892;5.738;2024-03-23T01:58:55;7.40;99.90
61392;DHT22;47261;52.892;5.738;2024-03-23T02:01:21;7.40;99.90
61392;DHT22;47261;52.892;5.738;2024-03-23T02:03:47;7.30;99.90
61392;DHT22;47261;52.892;5.738;2024-03-23T02:06:12;7.30;99.90
61392;DHT22;47261;52.892;5.738;2024-03-23T02:08:39;7.20;99.90
61392;DHT22;47261;52.892;5.738;2024-03-23T02:11:05;7.20;99.90
61392;DHT22;47261;52.892;5.738;2024-03-23T02:13:31;7.10;99.90
61392;DHT22;47261;52.892;5.738;2024-03-23T02:15:57;7.10;99.90
61392;DHT22;47261;52.892;5.738;2024-03-23T02:18:23;7.00;99.90
61392;DHT22;47261;52.892;5.738;2024-03-23T02:20:48;7.00;99.90
61392;DHT22;47261;52.892;5.738;2024-03-23T02:23:15;7.00;99.90
61392;DHT22;47261;52.892;5.738;2024-03-23T02:25:41;7.00;99.90
61392;DHT22;47261;52.892;5.738;2024-03-23T02:28:07;7.00;99.90
61392;DHT22;47261;52.892;5.738;2024-03-23T02:30:33;7.00;99.90
61392;DHT22;47261;52.892;5.738;2024-03-23T02:32:58;7.00;99.90
61392;DHT22;47261;52.892;5.738;2024-03-23T02:35:24;6.90;99.90
61392;DHT22;47261;52.892;5.738;2024-03-23T02:37:50;6.90;99.90
61392;DHT22;47261;52.892;5.738;2024-03-23T02:40:16;6.90;99.90
61392;DHT22;47261;52.892;5.738;2024-03-23T02:42:42;6.90;99.90
61392;DHT22;47261;52.892;5.738;2024-03-23T02:45:08;6.90;99.90
61392;DHT22;47261;52.892;5.738;2024-03-23T02:47:34;6.90;99.90
61392;DHT22;47261;52.892;5.738;2024-03-23T02:49:59;6.90;99.90
61392;DHT22;47261;52.892;5.738;2024-03-23T02:52:25;6.90;99.90
61392;DHT22;47261;52.892;5.738;2024-03-23T02:54:51;6.90;99.90
61392;DHT22;47261;52.892;5.738;2024-03-23T02:57:17;6.90;99.90
61392;DHT22;47261;52.892;5.738;2024-03-23T02:59:42;6.90;99.90
61392;DHT22;47261;52.892;5.738;2024-03-23T03:02:08;6.80;99.90
61392;DHT22;47261;52.892;5.738;2024-03-23T03:04:33;6.80;99.90
61392;DHT22;47261;52.892;5.738;2024-03-23T03:07:00;6.70;99.90
61392;DHT22;47261;52.892;5.738;2024-03-23T03:09:26;6.70;99.90
61392;DHT22;47261;52.892;5.738;2024-03-23T03:11:51;6.60;99.90
61392;DHT22;47261;52.892;5.738;2024-03-23T03:14:17;6.60;99.90
61392;DHT22;47261;52.892;5.738;2024-03-23T03:16:43;6.60;99.90
61392;DHT22;47261;52.892;5.738;2024-03-23T03:19:08;6.50;99.90
61392;DHT22;47261;52.892;5.738;2024-03-23T03:21:36;6.50;99.90
61392;DHT22;47261;52.892;5.738;2024-03-23T03:24:02;6.40;99.90
61392;DHT22;47261;52.892;5.738;2024-03-23T03:26:27;6.40;99.90
61392;DHT22;47261;52.892;5.738;2024-03-23T03:28:53;6.40;99.90
61392;DHT22;47261;52.892;5.738;2024-03-23T03:31:19;6.40;99.90
61392;DHT22;47261;52.892;5.738;2024-03-23T03:33:44;6.40;99.90
61392;DHT22;47261;52.892;5.738;2024-03-23T03:36:10;6.40;99.90
61392;DHT22;47261;52.892;5.738;2024-03-23T03:38:36;6.40;99.90
61392;DHT22;47261;52.892;5.738;2024-03-23T03:41:02;6.30;99.90
61392;DHT22;47261;52.892;5.738;2024-03-23T03:43:28;6.30;99.90
61392;DHT22;47261;52.892;5.738;2024-03-23T03:45:54;6.30;99.90
61392;DHT22;47261;52.892;5.738;2024-03-23T03:48:20;6.30;99.90
61392;DHT22;47261;52.892;5.738;2024-03-23T03:50:46;6.30;99.90
61392;DHT22;47261;52.892;5.738;2024-03-23T03:53:11;6.30;99.90
61392;DHT22;47261;52.892;5.738;2024-03-23T03:55:37;6.40;99.90
61392;DHT22;47261;52.892;5.738;2024-03-23T03:58:03;6.40;99.90
61392;DHT22;47261;52.892;5.738;2024-03-23T04:00:30;6.40;99.90
61392;DHT22;47261;52.892;5.738;2024-03-23T04:02:56;6.40;99.90
61392;DHT22;47261;52.892;5.738;2024-03-23T04:05:21;6.40;99.90
61392;DHT22;47261;52.892;5.738;2024-03-23T04:07:48;6.50;99.90
61392;DHT22;47261;52.892;5.738;2024-03-23T04:10:13;6.50;99.90
61392;DHT22;47261;52.892;5.738;2024-03-23T04:12:43;6.50;99.90
61392;DHT22;47261;52.892;5.738;2024-03-23T04:15:10;6.50;99.90
61392;DHT22;47261;52.892;5.738;2024-03-23T04:17:36;6.50;99.90
61392;DHT22;47261;52.892;5.738;2024-03-23T04:20:02;6.50;99.90
61392;DHT22;47261;52.892;5.738;2024-03-23T04:22:33;6.50;99.90
61392;DHT22;47261;52.892;5.738;2024-03-23T04:25:00;6.50;99.90
61392;DHT22;47261;52.892;5.738;2024-03-23T04:27:25;6.50;99.90
61392;DHT22;47261;52.892;5.738;2024-03-23T04:29:52;6.50;99.90
61392;DHT22;47261;52.892;5.738;2024-03-23T04:32:18;6.50;99.90
61392;DHT22;47261;52.892;5.738;2024-03-23T04:34:44;6.50;99.90
61392;DHT22;47261;52.892;5.738;2024-03-23T04:37:10;6.50;99.90
61392;DHT22;47261;52.892;5.738;2024-03-23T04:39:38;6.60;99.90
61392;DHT22;47261;52.892;5.738;2024-03-23T04:42:04;6.50;99.90
61392;DHT22;47261;52.892;5.738;2024-03-23T04:44:31;6.60;99.90
61392;DHT22;47261;52.892;5.738;2024-03-23T04:46:57;6.50;99.90
61392;DHT22;47261;52.892;5.738;2024-03-23T04:49:23;6.60;99.90
61392;DHT22;47261;52.892;5.738;2024-03-23T04:51:48;6.60;99.90
61392;DHT22;47261;52.892;5.738;2024-03-23T04:54:14;6.60;99.90
61392;DHT22;47261;52.892;5.738;2024-03-23T04:56:40;6.60;99.90
61392;DHT22;47261;52.892;5.738;2024-03-23T04:59:06;6.60;99.90
61392;DHT22;47261;52.892;5.738;2024-03-23T05:01:31;6.60;99.90
61392;DHT22;47261;52.892;5.738;2024-03-23T05:03:58;6.60;99.90
61392;DHT22;47261;52.892;5.738;2024-03-23T05:06:25;6.60;99.90
61392;DHT22;47261;52.892;5.738;2024-03-23T05:08:51;6.60;99.90
61392;DHT22;47261;52.892;5.738;2024-03-23T05:11:17;6.60;99.90
61392;DHT22;47261;52.892;5.738;2024-03-23T05:13:43;6.60;99.90
61392;DHT22;47261;52.892;5.738;2024-03-23T05:16:09;6.70;99.90
61392;DHT22;47261;52.892;5.738;2024-03-23T05:18:35;6.70;99.90
61392;DHT22;47261;52.892;5.738;2024-03-23T05:21:01;6.70;99.90
61392;DHT22;47261;52.892;5.738;2024-03-23T05:23:28;6.80;99.90
61392;DHT22;47261;52.892;5.738;2024-03-23T05:25:54;6.90;99.90
61392;DHT22;47261;52.892;5.738;2024-03-23T05:28:21;6.90;99.90
61392;DHT22;47261;52.892;5.738;2024-03-23T05:30:53;6.90;99.90
61392;DHT22;47261;52.892;5.738;2024-03-23T05:33:20;6.80;99.90
61392;DHT22;47261;52.892;5.738;2024-03-23T05:35:46;6.70;99.90
61392;DHT22;47261;52.892;5.738;2024-03-23T05:38:13;6.50;99.90
61392;DHT22;47261;52.892;5.738;2024-03-23T05:40:39;6.40;99.90
61392;DHT22;47261;52.892;5.738;2024-03-23T05:43:06;6.30;99.90
61392;DHT22;47261;52.892;5.738;2024-03-23T05:45:32;6.30;99.90
61392;DHT22;47261;52.892;5.738;2024-03-23T05:47:58;6.30;99.90
61392;DHT22;47261;52.892;5.738;2024-03-23T05:50:23;6.30;99.90
61392;DHT22;47261;52.892;5.738;2024-03-23T05:52:50;6.30;99.90
61392;DHT22;47261;52.892;5.738;2024-03-23T05:55:15;6.40;99.90
61392;DHT22;47261;52.892;5.738;2024-03-23T05:57:41;6.40;99.90
61392;DHT22;47261;52.892;5.738;2024-03-23T06:00:07;6.50;99.90
61392;DHT22;47261;52.892;5.738;2024-03-23T06:02:43;6.60;99.90
61392;DHT22;47261;52.892;5.738;2024-03-23T06:05:12;6.70;99.90
61392;DHT22;47261;52.892;5.738;2024-03-23T06:07:38;6.80;99.90
61392;DHT22;47261;52.892;5.738;2024-03-23T06:10:05;6.80;99.90
61392;DHT22;47261;52.892;5.738;2024-03-23T06:12:31;6.90;99.90
61392;DHT22;47261;52.892;5.738;2024-03-23T06:14:57;6.90;99.90
61392;DHT22;47261;52.892;5.738;2024-03-23T06:17:23;7.00;99.90
61392;DHT22;47261;52.892;5.738;2024-03-23T06:19:48;7.10;99.90
61392;DHT22;47261;52.892;5.738;2024-03-23T06:22:15;7.20;99.90
61392;DHT22;47261;52.892;5.738;2024-03-23T06:24:40;7.20;99.90
61392;DHT22;47261;52.892;5.738;2024-03-23T06:27:06;7.30;99.90
61392;DHT22;47261;52.892;5.738;2024-03-23T06:29:32;7.40;99.90
61392;DHT22;47261;52.892;5.738;2024-03-23T06:31:58;7.40;99.90
61392;DHT22;47261;52.892;5.738;2024-03-23T06:34:24;7.50;99.90
61392;DHT22;47261;52.892;5.738;2024-03-23T06:36:50;7.40;99.90
61392;DHT22;47261;52.892;5.738;2024-03-23T06:39:16;7.30;99.90
61392;DHT22;47261;52.892;5.738;2024-03-23T06:41:42;7.20;99.90
61392;DHT22;47261;52.892;5.738;2024-03-23T06:44:08;7.20;99.90
61392;DHT22;47261;52.892;5.738;2024-03-23T06:46:34;7.10;99.90
61392;DHT22;47261;52.892;5.738;2024-03-23T06:49:00;7.10;99.90
61392;DHT22;47261;52.892;5.738;2024-03-23T06:51:25;7.30;99.90
61392;DHT22;47261;52.892;5.738;2024-03-23T06:53:51;7.40;99.90
61392;DHT22;47261;52.892;5.738;2024-03-23T06:56:17;7.60;99.90
61392;DHT22;47261;52.892;5.738;2024-03-23T06:58:42;7.80;99.90
61392;DHT22;47261;52.892;5.738;2024-03-23T07:01:08;7.90;99.90
61392;DHT22;47261;52.892;5.738;2024-03-23T07:03:33;8.00;99.90
61392;DHT22;47261;52.892;5.738;2024-03-23T07:05:59;8.00;99.90
61392;DHT22;47261;52.892;5.738;2024-03-23T07:08:25;8.00;99.90
61392;DHT22;47261;52.892;5.738;2024-03-23T07:10:50;8.00;99.90
61392;DHT22;47261;52.892;5.738;2024-03-23T07:13:16;8.00;99.90
61392;DHT22;47261;52.892;5.738;2024-03-23T07:15:42;8.00;99.90
61392;DHT22;47261;52.892;5.738;2024-03-23T07:18:08;8.00;99.90
61392;DHT22;47261;52.892;5.738;2024-03-23T07:20:34;8.00;99.90
61392;DHT22;47261;52.892;5.738;2024-03-23T07:22:59;8.10;99.90
61392;DHT22;47261;52.892;5.738;2024-03-23T07:25:25;8.20;99.90
61392;DHT22;47261;52.892;5.738;2024-03-23T07:27:53;8.40;99.90
61392;DHT22;47261;52.892;5.738;2024-03-23T07:30:19;8.60;99.90
61392;DHT22;47261;52.892;5.738;2024-03-23T07:32:44;8.70;99.90
61392;DHT22;47261;52.892;5.738;2024-03-23T07:35:10;8.70;99.90
61392;DHT22;47261;52.892;5.738;2024-03-23T07:37:36;8.70;99.90
61392;DHT22;47261;52.892;5.738;2024-03-23T07:40:01;8.70;99.90
61392;DHT22;47261;52.892;5.738;2024-03-23T07:42:28;8.70;99.90
61392;DHT22;47261;52.892;5.738;2024-03-23T07:44:54;8.70;99.90
61392;DHT22;47261;52.892;5.738;2024-03-23T07:47:22;8.70;99.90
61392;DHT22;47261;52.892;5.738;2024-03-23T07:49:48;8.90;99.90
61392;DHT22;47261;52.892;5.738;2024-03-23T07:52:14;9.10;99.90
61392;DHT22;47261;52.892;5.738;2024-03-23T07:54:39;9.40;99.90
61392;DHT22;47261;52.892;5.738;2024-03-23T07:57:05;9.60;99.90
61392;DHT22;47261;52.892;5.738;2024-03-23T07:59:31;9.90;99.90
61392;DHT22;47261;52.892;5.738;2024-03-23T08:01:59;9.90;99.90
61392;DHT22;47261;52.892;5.738;2024-03-23T08:04:25;9.80;99.90
61392;DHT22;47261;52.892;5.738;2024-03-23T08:06:50;9.50;99.90
61392;DHT22;47261;52.892;5.738;2024-03-23T08:09:16;9.30;99.90
61392;DHT22;47261;52.892;5.738;2024-03-23T08:11:42;9.10;99.90
61392;DHT22;47261;52.892;5.738;2024-03-23T08:14:10;9.00;99.90
61392;DHT22;47261;52.892;5.738;2024-03-23T08:16:36;9.00;99.90
61392;DHT22;47261;52.892;5.738;2024-03-23T08:19:01;9.20;99.90
61392;DHT22;47261;52.892;5.738;2024-03-23T08:21:29;9.40;99.90
61392;DHT22;47261;52.892;5.738;2024-03-23T08:23:54;9.60;99.90
61392;DHT22;47261;52.892;5.738;2024-03-23T08:26:20;9.80;99.90
61392;DHT22;47261;52.892;5.738;2024-03-23T08:28:46;10.00;99.90
61392;DHT22;47261;52.892;5.738;2024-03-23T08:31:13;10.20;99.90
61392;DHT22;47261;52.892;5.738;2024-03-23T08:33:40;10.30;99.90
61392;DHT22;47261;52.892;5.738;2024-03-23T08:36:09;10.20;99.90
61392;DHT22;47261;52.892;5.738;2024-03-23T08:38:37;10.00;99.90
61392;DHT22;47261;52.892;5.738;2024-03-23T08:41:04;9.70;99.90
61392;DHT22;47261;52.892;5.738;2024-03-23T08:43:32;9.50;99.90
61392;DHT22;47261;52.892;5.738;2024-03-23T08:46:15;9.30;99.90
61392;DHT22;47261;52.892;5.738;2024-03-23T08:48:42;9.10;99.90
61392;DHT22;47261;52.892;5.738;2024-03-23T08:51:10;8.90;99.90
61392;DHT22;47261;52.892;5.738;2024-03-23T08:53:36;8.80;99.90
61392;DHT22;47261;52.892;5.738;2024-03-23T08:56:03;8.80;99.90
61392;DHT22;47261;52.892;5.738;2024-03-23T08:58:31;8.90;99.90
61392;DHT22;47261;52.892;5.738;2024-03-23T09:01:03;8.70;99.90
61392;DHT22;47261;52.892;5.738;2024-03-23T09:03:29;8.40;99.90
61392;DHT22;47261;52.892;5.738;2024-03-23T09:05:55;8.20;99.90
61392;DHT22;47261;52.892;5.738;2024-03-23T09:08:21;8.10;99.90
61392;DHT22;47261;52.892;5.738;2024-03-23T09:10:47;8.00;99.90
61392;DHT22;47261;52.892;5.738;2024-03-23T09:13:13;8.00;99.90
61392;DHT22;47261;52.892;5.738;2024-03-23T09:15:47;8.00;99.90
61392;DHT22;47261;52.892;5.738;2024-03-23T09:18:13;8.30;99.90
61392;DHT22;47261;52.892;5.738;2024-03-23T09:20:38;8.50;99.90
61392;DHT22;47261;52.892;5.738;2024-03-23T09:23:04;8.40;99.90
61392;DHT22;47261;52.892;5.738;2024-03-23T09:25:29;8.30;99.90
61392;DHT22;47261;52.892;5.738;2024-03-23T09:27:55;8.10;99.90
61392;DHT22;47261;52.892;5.738;2024-03-23T09:30:21;8.00;99.90
61392;DHT22;47261;52.892;5.738;2024-03-23T09:32:46;7.90;99.90
61392;DHT22;47261;52.892;5.738;2024-03-23T09:35:12;7.90;99.90
61392;DHT22;47261;52.892;5.738;2024-03-23T09:37:38;8.20;99.90
61392;DHT22;47261;52.892;5.738;2024-03-23T09:40:10;8.50;99.90
61392;DHT22;47261;52.892;5.738;2024-03-23T09:42:37;8.90;99.90
61392;DHT22;47261;52.892;5.738;2024-03-23T09:45:08;9.30;99.90
61392;DHT22;47261;52.892;5.738;2024-03-23T09:47:36;9.70;99.90
61392;DHT22;47261;52.892;5.738;2024-03-23T09:50:03;9.70;99.90
61392;DHT22;47261;52.892;5.738;2024-03-23T09:52:30;9.50;99.90
61392;DHT22;47261;52.892;5.738;2024-03-23T09:54:56;9.30;99.90
61392;DHT22;47261;52.892;5.738;2024-03-23T09:57:22;9.20;99.90
61392;DHT22;47261;52.892;5.738;2024-03-23T09:59:48;9.10;99.90
61392;DHT22;47261;52.892;5.738;2024-03-23T10:02:13;8.90;99.90
61392;DHT22;47261;52.892;5.738;2024-03-23T10:04:42;8.50;99.90
61392;DHT22;47261;52.892;5.738;2024-03-23T10:07:19;8.10;99.90
61392;DHT22;47261;52.892;5.738;2024-03-23T10:09:45;7.80;99.90
61392;DHT22;47261;52.892;5.738;2024-03-23T10:12:16;7.50;99.90
61392;DHT22;47261;52.892;5.738;2024-03-23T10:14:42;7.30;99.90
61392;DHT22;47261;52.892;5.738;2024-03-23T10:17:21;7.30;99.90
61392;DHT22;47261;52.892;5.738;2024-03-23T10:19:52;7.20;99.90
61392;DHT22;47261;52.892;5.738;2024-03-23T10:22:22;7.40;99.90
61392;DHT22;47261;52.892;5.738;2024-03-23T10:24:49;7.70;99.90
61392;DHT22;47261;52.892;5.738;2024-03-23T10:27:19;7.70;99.90
61392;DHT22;47261;52.892;5.738;2024-03-23T10:29:46;7.80;99.90
61392;DHT22;47261;52.892;5.738;2024-03-23T10:32:12;7.80;99.90
61392;DHT22;47261;52.892;5.738;2024-03-23T10:34:38;7.90;99.90
61392;DHT22;47261;52.892;5.738;2024-03-23T10:37:05;8.00;99.90
61392;DHT22;47261;52.892;5.738;2024-03-23T10:39:34;7.90;99.90
61392;DHT22;47261;52.892;5.738;2024-03-23T10:42:05;7.70;99.90
61392;DHT22;47261;52.892;5.738;2024-03-23T10:44:31;7.50;99.90
61392;DHT22;47261;52.892;5.738;2024-03-23T10:46:58;7.40;99.90
61392;DHT22;47261;52.892;5.738;2024-03-23T10:49:33;7.40;99.90
61392;DHT22;47261;52.892;5.738;2024-03-23T10:52:00;7.50;99.90
61392;DHT22;47261;52.892;5.738;2024-03-23T10:54:27;7.70;99.90
61392;DHT22;47261;52.892;5.738;2024-03-23T10:57:09;8.10;99.90
61392;DHT22;47261;52.892;5.738;2024-03-23T10:59:37;8.60;99.90
61392;DHT22;47261;52.892;5.738;2024-03-23T11:02:03;9.10;99.90
61392;DHT22;47261;52.892;5.738;2024-03-23T11:04:39;9.50;99.90
61392;DHT22;47261;52.892;5.738;2024-03-23T11:07:32;10.00;99.90
61392;DHT22;47261;52.892;5.738;2024-03-23T11:09:58;10.10;99.90
61392;DHT22;47261;52.892;5.738;2024-03-23T11:14:51;9.30;99.90
61392;DHT22;47261;52.892;5.738;2024-03-23T11:17:19;8.80;99.90
61392;DHT22;47261;52.892;5.738;2024-03-23T11:19:59;8.30;99.90
61392;DHT22;47261;52.892;5.738;2024-03-23T11:25:23;7.90;99.90
61392;DHT22;47261;52.892;5.738;2024-03-23T11:28:08;7.80;99.90
61392;DHT22;47261;52.892;5.738;2024-03-23T11:30:34;7.90;99.90
61392;DHT22;47261;52.892;5.738;2024-03-23T11:33:02;8.30;99.90
61392;DHT22;47261;52.892;5.738;2024-03-23T11:35:38;8.90;99.90
61392;DHT22;47261;52.892;5.738;2024-03-23T11:38:07;9.30;99.90
61392;DHT22;47261;52.892;5.738;2024-03-23T11:40:34;9.50;99.90
61392;DHT22;47261;52.892;5.738;2024-03-23T11:43:01;9.40;99.90
61392;DHT22;47261;52.892;5.738;2024-03-23T11:45:29;9.20;99.90
61392;DHT22;47261;52.892;5.738;2024-03-23T11:48:09;9.00;99.90
61392;DHT22;47261;52.892;5.738;2024-03-23T11:50:41;9.00;99.90
61392;DHT22;47261;52.892;5.738;2024-03-23T11:53:16;9.30;99.90
61392;DHT22;47261;52.892;5.738;2024-03-23T11:58:10;10.00;99.90
61392;DHT22;47261;52.892;5.738;2024-03-23T12:00:35;10.30;99.90
61392;DHT22;47261;52.892;5.738;2024-03-23T12:03:02;10.50;99.90
61392;DHT22;47261;52.892;5.738;2024-03-23T12:05:28;10.80;99.90
61392;DHT22;47261;52.892;5.738;2024-03-23T12:07:55;11.00;99.90
61392;DHT22;47261;52.892;5.738;2024-03-23T12:10:20;11.00;99.90
61392;DHT22;47261;52.892;5.738;2024-03-23T12:12:46;10.80;99.90
61392;DHT22;47261;52.892;5.738;2024-03-23T12:15:11;10.50;99.90
61392;DHT22;47261;52.892;5.738;2024-03-23T12:17:40;10.50;99.90
61392;DHT22;47261;52.892;5.738;2024-03-23T12:20:06;10.70;99.90
61392;DHT22;47261;52.892;5.738;2024-03-23T12:22:32;10.80;99.90
61392;DHT22;47261;52.892;5.738;2024-03-23T12:24:59;11.00;99.90
61392;DHT22;47261;52.892;5.738;2024-03-23T12:27:25;11.00;99.90
61392;DHT22;47261;52.892;5.738;2024-03-23T12:29:51;11.10;99.90
61392;DHT22;47261;52.892;5.738;2024-03-23T12:32:16;11.10;99.90
61392;DHT22;47261;52.892;5.738;2024-03-23T12:34:42;10.90;99.90
61392;DHT22;47261;52.892;5.738;2024-03-23T12:37:08;10.70;99.90
61392;DHT22;47261;52.892;5.738;2024-03-23T12:39:34;10.70;99.90
61392;DHT22;47261;52.892;5.738;2024-03-23T12:42:01;10.70;99.90
61392;DHT22;47261;52.892;5.738;2024-03-23T12:44:28;10.80;99.90
61392;DHT22;47261;52.892;5.738;2024-03-23T12:46:54;10.80;99.90
61392;DHT22;47261;52.892;5.738;2024-03-23T12:49:19;10.60;99.80
61392;DHT22;47261;52.892;5.738;2024-03-23T12:51:54;10.40;99.80
61392;DHT22;47261;52.892;5.738;2024-03-23T12:54:21;10.20;99.90
61392;DHT22;47261;52.892;5.738;2024-03-23T12:56:47;10.10;99.90
61392;DHT22;47261;52.892;5.738;2024-03-23T12:59:12;10.00;99.90
61392;DHT22;47261;52.892;5.738;2024-03-23T13:01:39;9.90;99.90
61392;DHT22;47261;52.892;5.738;2024-03-23T13:04:04;9.80;99.90
61392;DHT22;47261;52.892;5.738;2024-03-23T13:06:30;9.70;99.90
61392;DHT22;47261;52.892;5.738;2024-03-23T13:09:03;9.70;99.90
61392;DHT22;47261;52.892;5.738;2024-03-23T13:11:30;9.90;99.90
61392;DHT22;47261;52.892;5.738;2024-03-23T13:13:55;10.10;99.90
61392;DHT22;47261;52.892;5.738;2024-03-23T13:16:21;10.20;99.90
61392;DHT22;47261;52.892;5.738;2024-03-23T13:18:47;10.20;99.90
61392;DHT22;47261;52.892;5.738;2024-03-23T13:21:13;10.10;99.90
61392;DHT22;47261;52.892;5.738;2024-03-23T13:23:39;10.00;99.90
61392;DHT22;47261;52.892;5.738;2024-03-23T13:26:07;10.00;99.90
61392;DHT22;47261;52.892;5.738;2024-03-23T13:28:33;10.00;99.90
61392;DHT22;47261;52.892;5.738;2024-03-23T13:30:58;10.00;99.80
61392;DHT22;47261;52.892;5.738;2024-03-23T13:33:29;9.90;99.40
61392;DHT22;47261;52.892;5.738;2024-03-23T13:35:55;9.80;99.20
61392;DHT22;47261;52.892;5.738;2024-03-23T13:38:21;10.00;99.80
61392;DHT22;47261;52.892;5.738;2024-03-23T13:40:55;10.10;99.50
61392;DHT22;47261;52.892;5.738;2024-03-23T13:43:22;10.00;99.40
61392;DHT22;47261;52.892;5.738;2024-03-23T13:45:49;10.10;99.90
61392;DHT22;47261;52.892;5.738;2024-03-23T13:48:16;10.10;99.30
61392;DHT22;47261;52.892;5.738;2024-03-23T13:50:43;10.10;99.40
61392;DHT22;47261;52.892;5.738;2024-03-23T13:53:09;10.00;99.50
61392;DHT22;47261;52.892;5.738;2024-03-23T13:55:34;9.60;99.90
61392;DHT22;47261;52.892;5.738;2024-03-23T13:58:01;9.20;99.90
61392;DHT22;47261;52.892;5.738;2024-03-23T14:00:26;8.90;99.90
61392;DHT22;47261;52.892;5.738;2024-03-23T14:02:52;8.80;99.90
61392;DHT22;47261;52.892;5.738;2024-03-23T14:05:18;8.80;99.90
61392;DHT22;47261;52.892;5.738;2024-03-23T14:07:43;8.80;99.90
61392;DHT22;47261;52.892;5.738;2024-03-23T14:10:09;8.70;99.90
61392;DHT22;47261;52.892;5.738;2024-03-23T14:12:38;8.70;99.90
61392;DHT22;47261;52.892;5.738;2024-03-23T14:15:07;8.90;99.90
61392;DHT22;47261;52.892;5.738;2024-03-23T14:17:33;9.20;99.90
61392;DHT22;47261;52.892;5.738;2024-03-23T14:19:59;9.60;99.90
61392;DHT22;47261;52.892;5.738;2024-03-23T14:22:31;9.90;99.90
61392;DHT22;47261;52.892;5.738;2024-03-23T14:24:56;10.20;99.90
61392;DHT22;47261;52.892;5.738;2024-03-23T14:27:22;10.40;99.90
61392;DHT22;47261;52.892;5.738;2024-03-23T14:29:48;10.60;99.90
61392;DHT22;47261;52.892;5.738;2024-03-23T14:32:14;10.70;99.90
61392;DHT22;47261;52.892;5.738;2024-03-23T14:34:40;10.70;99.60
61392;DHT22;47261;52.892;5.738;2024-03-23T14:37:06;10.60;99.90
61392;DHT22;47261;52.892;5.738;2024-03-23T14:39:32;10.40;99.40
61392;DHT22;47261;52.892;5.738;2024-03-23T14:42:03;9.90;98.10
61392;DHT22;47261;52.892;5.738;2024-03-23T14:44:29;9.40;99.90
61392;DHT22;47261;52.892;5.738;2024-03-23T14:46:54;9.00;99.90
61392;DHT22;47261;52.892;5.738;2024-03-23T14:49:21;8.60;99.90
61392;DHT22;47261;52.892;5.738;2024-03-23T14:51:46;8.40;99.90
61392;DHT22;47261;52.892;5.738;2024-03-23T14:54:12;8.30;99.90
61392;DHT22;47261;52.892;5.738;2024-03-23T14:56:38;8.20;99.90
61392;DHT22;47261;52.892;5.738;2024-03-23T14:59:04;8.20;99.90
61392;DHT22;47261;52.892;5.738;2024-03-23T15:01:31;8.20;99.90
61392;DHT22;47261;52.892;5.738;2024-03-23T15:03:57;8.10;99.90
61392;DHT22;47261;52.892;5.738;2024-03-23T15:06:22;8.30;99.90
61392;DHT22;47261;52.892;5.738;2024-03-23T15:08:48;8.60;99.90
61392;DHT22;47261;52.892;5.738;2024-03-23T15:11:14;8.80;99.90
61392;DHT22;47261;52.892;5.738;2024-03-23T15:13:43;8.90;99.90
61392;DHT22;47261;52.892;5.738;2024-03-23T15:16:09;9.10;99.90
61392;DHT22;47261;52.892;5.738;2024-03-23T15:18:35;9.10;99.90
61392;DHT22;47261;52.892;5.738;2024-03-23T15:21:02;9.00;99.90
61392;DHT22;47261;52.892;5.738;2024-03-23T15:23:29;8.80;99.90
61392;DHT22;47261;52.892;5.738;2024-03-23T15:25:58;8.60;99.90
61392;DHT22;47261;52.892;5.738;2024-03-23T15:28:25;8.40;99.90
61392;DHT22;47261;52.892;5.738;2024-03-23T15:31:09;8.20;99.90
61392;DHT22;47261;52.892;5.738;2024-03-23T15:33:35;8.10;99.90
61392;DHT22;47261;52.892;5.738;2024-03-23T15:36:05;8.10;99.90
61392;DHT22;47261;52.892;5.738;2024-03-23T15:38:34;8.20;99.90
61392;DHT22;47261;52.892;5.738;2024-03-23T15:41:00;8.30;99.90
61392;DHT22;47261;52.892;5.738;2024-03-23T15:43:26;8.40;99.90
61392;DHT22;47261;52.892;5.738;2024-03-23T15:45:59;8.50;99.90
61392;DHT22;47261;52.892;5.738;2024-03-23T15:48:26;8.40;99.90
61392;DHT22;47261;52.892;5.738;2024-03-23T15:50:53;8.40;99.90
61392;DHT22;47261;52.892;5.738;2024-03-23T15:53:19;8.50;99.90
61392;DHT22;47261;52.892;5.738;2024-03-23T15:55:46;8.40;99.90
61392;DHT22;47261;52.892;5.738;2024-03-23T15:58:11;8.40;99.90
61392;DHT22;47261;52.892;5.738;2024-03-23T16:00:37;8.40;99.90
61392;DHT22;47261;52.892;5.738;2024-03-23T16:03:03;8.50;99.90
61392;DHT22;47261;52.892;5.738;2024-03-23T16:05:29;8.70;99.90
61392;DHT22;47261;52.892;5.738;2024-03-23T16:07:54;8.90;99.90
61392;DHT22;47261;52.892;5.738;2024-03-23T16:10:20;9.00;99.90
61392;DHT22;47261;52.892;5.738;2024-03-23T16:12:45;9.00;99.90
61392;DHT22;47261;52.892;5.738;2024-03-23T16:15:11;9.00;99.90
61392;DHT22;47261;52.892;5.738;2024-03-23T16:17:36;8.90;99.90
61392;DHT22;47261;52.892;5.738;2024-03-23T16:20:03;8.80;99.90
61392;DHT22;47261;52.892;5.738;2024-03-23T16:22:29;8.70;99.90
61392;DHT22;47261;52.892;5.738;2024-03-23T16:24:55;8.60;99.90
61392;DHT22;47261;52.892;5.738;2024-03-23T16:27:21;8.50;99.90
61392;DHT22;47261;52.892;5.738;2024-03-23T16:29:46;8.40;99.90
61392;DHT22;47261;52.892;5.738;2024-03-23T16:32:12;8.30;99.90
61392;DHT22;47261;52.892;5.738;2024-03-23T16:34:37;8.20;99.90
61392;DHT22;47261;52.892;5.738;2024-03-23T16:37:03;8.00;99.90
61392;DHT22;47261;52.892;5.738;2024-03-23T16:39:29;7.90;99.90
61392;DHT22;47261;52.892;5.738;2024-03-23T16:41:54;7.80;99.90
61392;DHT22;47261;52.892;5.738;2024-03-23T16:44:20;7.70;99.90